Terminal Aerodrome Forecast
Issued by NWS Austin/San Antonio, TX

Home | Current Version | Previous Version | Text Only | Print | Product List | Glossary On
Versions: 1 2 3 4 5 6 7 8 9 10 11 12 13 14 15 16 17
000
FTUS44 KEWX 311729
TAFSAT
TAF
KSAT 311729Z 3118/0124 26005KT P6SM BKN070 BKN250
     FM312100 05010KT P6SM VCTS SCT070CB SCT250
     FM010300 05005KT P6SM BKN250=

USA.gov is the U.S. government's official web portal to all federal, state and local government web resources and services.